Time;durP1;ratioP1;P1;durP2;ratioP2;P2;SDS_P1;SDS_P2;PMS_P1;PMS_P2;Temp;Humidity;BMP_temperature;BMP_pressure;BME280_temperature;BME280_humidity;BME280_pressure;Samples;Min_cycle;Max_cycle;Signal;HPM_P1;HPM_P2
2022/02/15 00:02:00;;;;;;;;;;;8.90;98.40;;;7.20;92.97;99605.69;5071076;28;19927;-88
2022/02/15 00:04:27;;;;;;;;;;;8.90;98.50;;;7.21;92.59;99599.22;5071130;28;20419;-88
2022/02/15 00:06:54;;;;;;;;;;;8.90;98.30;;;7.22;92.88;99600.94;5070215;28;20463;-88
2022/02/15 00:09:21;;;;;;;;;;;9.00;98.50;;;7.32;92.71;99606.06;5088700;28;19928;-88
2022/02/15 00:11:48;;;;;;;;;;;9.00;98.60;;;7.38;92.48;99608.00;5071071;28;19970;-88
2022/02/15 00:14:19;;;;;;;;;;;9.00;98.60;;;7.34;92.89;99610.25;5071213;28;19934;-88
2022/02/15 00:16:46;;;;;;;;;;;9.00;98.70;;;7.30;93.48;99598.13;5088976;28;20031;-88
2022/02/15 00:19:13;;;;;;;;;;;9.00;99.10;;;7.33;94.72;99605.00;5087768;28;20015;-88
2022/02/15 00:21:41;;;;;;;;;;;9.00;99.80;;;7.31;95.58;99604.38;5070866;28;19928;-88
2022/02/15 00:24:08;;;;;;;;;;;9.00;99.90;;;7.33;96.44;99610.44;5070797;28;19928;-88
2022/02/15 00:26:35;;;;;;;;;;;8.90;99.90;;;7.39;96.19;99610.53;5070582;28;20036;-87
2022/02/15 00:29:02;;;;;;;;;;;8.90;99.90;;;7.33;95.67;99611.28;5085697;28;19963;-87
2022/02/15 00:31:30;;;;;;;;;;;8.90;99.90;;;7.31;95.72;99613.34;5090663;28;20311;-88
2022/02/15 00:33:57;;;;;;;;;;;8.90;99.90;;;7.10;96.29;99618.63;5092075;28;19924;-89
2022/02/15 00:36:25;;;;;;;;;;;8.90;99.90;;;7.02;96.23;99628.50;5076071;28;19959;-87
2022/02/15 00:38:52;;;;;;;;;;;8.90;99.90;;;6.96;96.96;99618.41;5073590;28;20364;-89
2022/02/15 00:41:19;;;;;;;;;;;8.80;99.90;;;6.90;96.55;99621.84;5074717;28;20377;-87
2022/02/15 00:43:46;;;;;;;;;;;8.80;99.90;;;6.91;96.90;99626.25;5092942;28;19928;-88
2022/02/15 00:46:15;;;;;;;;;;;8.80;99.90;;;6.90;96.61;99631.84;5092658;28;19934;-88
2022/02/15 00:48:44;;;;;;;;;;;8.70;99.90;;;6.88;97.12;99642.84;5091534;28;20475;-88
2022/02/15 00:51:14;;;;;;;;;;;8.70;99.90;;;6.88;96.85;99642.84;5074420;28;20001;-87
2022/02/15 00:53:41;;;;;;;;;;;8.60;99.90;;;6.92;96.93;99644.16;5074482;28;19971;-88
2022/02/15 00:56:08;;;;;;;;;;;8.60;99.90;;;6.91;97.38;99647.91;5078811;28;20720;-87
2022/02/15 00:58:35;;;;;;;;;;;8.60;99.90;;;6.91;97.49;99650.59;5074440;28;19927;-88
2022/02/15 01:01:02;;;;;;;;;;;8.60;99.90;;;6.99;97.69;99642.41;5074196;28;20362;-88
2022/02/15 01:03:29;;;;;;;;;;;8.60;99.90;;;7.04;98.09;99647.25;5074107;28;19924;-88
2022/02/15 01:05:59;;;;;;;;;;;8.60;99.90;;;6.98;97.76;99640.72;5092288;28;19934;-88
2022/02/15 01:08:27;;;;;;;;;;;8.70;99.90;;;7.00;97.57;99644.06;5073208;28;19932;-86
2022/02/15 01:10:54;;;;;;;;;;;8.70;99.90;;;7.00;98.17;99644.06;5092265;28;19927;-89
2022/02/15 01:13:23;;;;;;;;;;;8.80;99.90;;;7.03;98.66;99659.13;5073837;28;19924;-88
2022/02/15 01:15:50;;;;;;;;;;;8.80;99.90;;;7.08;98.42;99650.44;5075367;28;20015;-88
2022/02/15 01:18:17;;;;;;;;;;;8.80;99.90;;;7.08;97.45;99651.25;5074419;28;20344;-87
2022/02/15 01:20:45;;;;;;;;;;;8.70;99.90;;;6.97;98.25;99649.88;5073773;28;19970;-89
2022/02/15 01:23:13;;;;;;;;;;;8.70;99.90;;;7.06;97.76;99650.63;5092169;28;19997;-88
2022/02/15 01:25:41;;;;;;;;;;;8.70;99.90;;;7.09;97.50;99644.84;5073860;28;19971;-87
2022/02/15 01:28:08;;;;;;;;;;;8.70;99.90;;;6.98;97.68;99638.00;5076043;28;20302;-87
2022/02/15 01:30:36;;;;;;;;;;;8.80;99.90;;;6.97;97.80;99641.75;5073859;28;20388;-88
2022/02/15 01:33:03;;;;;;;;;;;8.80;99.90;;;7.00;97.69;99644.06;5073235;28;20376;-88
2022/02/15 01:35:30;;;;;;;;;;;8.70;99.90;;;7.00;97.48;99654.88;5073386;28;19932;-87
2022/02/15 01:37:58;;;;;;;;;;;8.70;99.90;;;7.03;97.67;99651.81;5077854;28;19932;-88
2022/02/15 01:40:27;;;;;;;;;;;8.70;99.90;;;7.05;97.93;99652.47;5072682;28;20479;-87
2022/02/15 01:42:54;;;;;;;;;;;8.80;99.90;;;6.98;97.70;99656.94;5073087;28;20372;-88
2022/02/15 01:45:21;;;;;;;;;;;8.70;99.90;;;6.95;98.42;99662.72;5073069;28;19934;-88
2022/02/15 01:47:49;;;;;;;;;;;8.70;99.90;;;7.04;97.76;99663.47;5079150;28;19928;-87
2022/02/15 01:50:17;;;;;;;;;;;8.70;99.90;;;7.04;97.92;99660.78;5072445;28;20310;-88
2022/02/15 01:52:44;;;;;;;;;;;8.70;99.90;;;6.99;98.19;99669.47;5082149;28;19928;-87
2022/02/15 01:55:13;;;;;;;;;;;8.70;99.90;;;7.04;98.16;99664.34;5080425;28;19931;-87
2022/02/15 01:57:43;;;;;;;;;;;8.70;99.90;;;7.11;97.71;99664.44;5085368;28;19947;-88
2022/02/15 02:00:23;;;;;;;;;;;8.70;99.90;;;7.13;97.70;99666.97;5071611;28;19932;-88
2022/02/15 02:02:58;;;;;;;;;;;8.70;99.90;;;7.15;98.18;99668.47;5085904;28;19924;-87
2022/02/15 02:08:12;;;;;;;;;;;8.70;99.90;;;7.16;97.78;99663.88;5072321;28;19935;-87
2022/02/15 02:10:44;;;;;;;;;;;8.70;99.90;;;7.16;97.54;99670.16;5072568;28;19924;-88
2022/02/15 02:13:38;;;;;;;;;;;8.70;99.90;;;6.97;98.54;99671.50;5088535;28;19986;-87
2022/02/15 02:16:09;;;;;;;;;;;8.70;99.90;;;6.98;98.09;99667.75;5072885;28;19954;-88
2022/02/15 02:18:49;;;;;;;;;;;8.70;99.90;;;6.95;98.96;99668.13;5072134;28;20376;-88
2022/02/15 02:21:32;;;;;;;;;;;8.70;99.90;;;6.94;98.99;99677.25;5071917;28;19932;-88
2022/02/15 02:24:00;;;;;;;;;;;8.70;99.90;;;6.98;98.45;99678.56;5073075;28;19963;-88
2022/02/15 02:26:29;;;;;;;;;;;8.60;99.90;;;7.00;98.71;99690.06;5072552;28;19928;-87
2022/02/15 02:28:57;;;;;;;;;;;8.70;99.90;;;6.88;99.37;99688.81;5072006;28;20384;-87
2022/02/15 02:31:27;;;;;;;;;;;8.60;99.90;;;6.82;99.42;99692.25;5072368;28;19928;-88
2022/02/15 02:34:02;;;;;;;;;;;8.70;99.90;;;6.92;99.42;99690.13;5071825;28;20455;-88
2022/02/15 02:36:41;;;;;;;;;;;8.70;99.90;;;6.96;99.54;99691.44;5072086;28;20342;-88
2022/02/15 02:39:08;;;;;;;;;;;8.70;99.90;;;6.99;99.19;99688.38;5071517;28;19966;-88
2022/02/15 02:41:36;;;;;;;;;;;8.70;99.90;;;7.03;98.79;99692.41;5073353;28;20445;-88
2022/02/15 02:44:04;;;;;;;;;;;8.70;99.90;;;6.96;99.21;99696.84;5061035;28;19967;-87
2022/02/15 02:46:31;;;;;;;;;;;8.70;99.90;;;6.97;99.38;99703.13;5090429;28;19931;-87
2022/02/15 02:48:58;;;;;;;;;;;8.70;99.90;;;7.03;99.50;99703.22;5071093;28;19989;-87
2022/02/15 02:51:26;;;;;;;;;;;8.70;99.90;;;6.96;99.44;99706.84;5087505;28;19927;-88
2022/02/15 02:53:54;;;;;;;;;;;8.70;99.90;;;6.98;99.85;99711.03;5070674;28;19928;-87
2022/02/15 02:56:23;;;;;;;;;;;8.70;99.90;;;7.00;99.54;99719.81;5073098;28;19935;-88
2022/02/15 02:58:52;;;;;;;;;;;8.70;99.90;;;7.04;99.67;99720.28;5071354;28;19928;-87
2022/02/15 03:01:20;;;;;;;;;;;8.70;99.90;;;7.01;99.85;99715.25;5086354;28;19982;-88
2022/02/15 03:03:47;;;;;;;;;;;8.70;99.90;;;6.92;99.94;99721.75;5074023;28;20034;-88
2022/02/15 03:06:15;;;;;;;;;;;8.70;99.90;;;6.89;100.00;99731.06;5071970;28;20454;-87
2022/02/15 03:08:42;;;;;;;;;;;8.90;99.90;;;6.96;100.00;99742.84;5070947;28;19928;-87
2022/02/15 03:11:11;;;;;;;;;;;8.70;99.90;;;6.95;100.00;99735.75;5089715;28;20502;-88
2022/02/15 03:13:42;;;;;;;;;;;8.80;99.90;;;7.01;100.00;99743.16;5071511;28;19938;-88
2022/02/15 03:16:18;;;;;;;;;;;8.70;99.90;;;7.07;99.93;99738.06;5071221;28;19928;-87
2022/02/15 03:18:45;;;;;;;;;;;8.70;99.90;;;7.09;99.51;99742.25;5070930;28;19928;-87
2022/02/15 03:21:13;;;;;;;;;;;8.70;99.90;;;7.11;99.38;99747.47;5080966;28;19943;-89
2022/02/15 03:23:41;;;;;;;;;;;8.70;99.90;;;7.05;99.30;99744.47;5071591;28;19928;-87
2022/02/15 03:26:13;;;;;;;;;;;8.70;99.90;;;7.02;99.92;99754.81;5071523;28;19931;-88
2022/02/15 03:28:42;;;;;;;;;;;8.70;99.90;;;7.05;100.00;99749.03;5070747;28;19924;-87
2022/02/15 03:31:10;;;;;;;;;;;8.70;99.90;;;7.00;99.83;99749.56;5080691;28;20018;-88
2022/02/15 03:33:37;;;;;;;;;;;8.70;99.90;;;7.03;99.98;99748.38;5071446;28;19928;-87
2022/02/15 03:36:05;;;;;;;;;;;8.70;99.90;;;6.96;100.00;99756.38;5071193;28;20550;-88
2022/02/15 03:38:36;;;;;;;;;;;8.70;99.90;;;6.94;100.00;99760.28;5069863;28;19928;-88
2022/02/15 03:44:15;;;;;;;;;;;8.70;99.90;;;7.03;100.00;99754.63;5088788;28;20006;-89
2022/02/15 03:46:46;;;;;;;;;;;8.70;99.90;;;6.97;100.00;99758.06;5071458;28;20304;-88
2022/02/15 03:49:14;;;;;;;;;;;8.70;99.90;;;6.86;100.00;99763.88;5069834;28;19932;-88
2022/02/15 03:51:44;;;;;;;;;;;8.60;99.90;;;6.70;100.00;99755.88;5087688;28;19928;-88
2022/02/15 03:54:11;;;;;;;;;;;8.70;99.90;;;6.73;100.00;99760.94;5084843;28;19931;-87
2022/02/15 03:56:40;;;;;;;;;;;8.70;99.90;;;6.78;100.00;99774.78;5070758;28;19924;-88
2022/02/15 03:59:08;;;;;;;;;;;8.70;99.90;;;6.78;100.00;99785.59;5069703;28;20388;-88
2022/02/15 04:01:37;;;;;;;;;;;8.70;99.90;;;6.84;100.00;99784.88;5086187;28;19928;-87
2022/02/15 04:04:05;;;;;;;;;;;8.70;99.90;;;6.79;100.00;99789.97;5073736;28;20554;-88
2022/02/15 04:06:32;;;;;;;;;;;8.60;99.90;;;6.65;100.00;99792.41;5074962;28;19928;-87
2022/02/15 04:09:00;;;;;;;;;;;8.60;99.90;;;6.65;100.00;99796.97;5092571;28;19931;-87
2022/02/15 04:11:27;;;;;;;;;;;8.60;99.90;;;6.70;100.00;99793.72;5075466;28;20690;-87
2022/02/15 04:13:54;;;;;;;;;;;8.60;99.90;;;6.71;100.00;99795.41;5075130;28;20277;-88
2022/02/15 04:16:24;;;;;;;;;;;8.60;99.90;;;6.76;100.00;99795.72;5075338;28;19936;-88
2022/02/15 04:18:52;;;;;;;;;;;8.60;99.90;;;6.76;100.00;99793.88;5074124;28;20277;-88
2022/02/15 04:21:23;;;;;;;;;;;8.60;99.90;;;6.78;100.00;99802.66;5087117;28;19928;-88
2022/02/15 04:23:51;;;;;;;;;;;8.60;99.90;;;6.81;100.00;99806.84;5083255;28;19928;-87
2022/02/15 04:26:19;;;;;;;;;;;8.60;99.90;;;6.77;100.00;99803.66;5074820;28;20380;-88
2022/02/15 04:28:47;;;;;;;;;;;8.60;99.90;;;6.83;100.00;99815.63;5074029;28;19963;-87
2022/02/15 04:31:22;;;;;;;;;;;8.50;99.90;;;6.87;100.00;99811.53;5087259;28;19928;-87
2022/02/15 04:33:53;;;;;;;;;;;8.50;99.90;;;6.92;100.00;99814.56;5078138;28;20441;-88
2022/02/15 04:36:21;;;;;;;;;;;8.50;99.90;;;6.84;100.00;99820.03;5074919;28;19936;-87
2022/02/15 04:38:53;;;;;;;;;;;8.50;99.90;;;6.82;100.00;99822.91;5073713;28;19928;-87
2022/02/15 04:41:20;;;;;;;;;;;8.50;99.90;;;6.76;100.00;99836.28;5092796;28;19943;-88
2022/02/15 04:43:50;;;;;;;;;;;8.50;99.90;;;6.69;100.00;99836.16;5074375;28;19928;-88
2022/02/15 04:46:24;;;;;;;;;;;8.50;99.90;;;6.76;100.00;99837.13;5074884;28;19928;-87
2022/02/15 04:48:53;;;;;;;;;;;8.50;99.90;;;6.74;100.00;99836.47;5073727;28;19950;-88
2022/02/15 04:51:20;;;;;;;;;;;8.50;99.90;;;6.69;100.00;99846.97;5085854;28;19947;-87
2022/02/15 04:53:51;;;;;;;;;;;8.40;99.90;;;6.62;100.00;99844.09;5073791;28;19928;-89
2022/02/15 04:56:18;;;;;;;;;;;8.40;99.90;;;6.61;100.00;99849.72;5074275;28;19927;-88
2022/02/15 04:58:45;;;;;;;;;;;8.40;99.90;;;6.56;100.00;99852.94;5074145;28;19936;-88
2022/02/15 05:01:14;;;;;;;;;;;8.40;99.90;;;6.53;100.00;99853.28;5078003;28;19928;-87
2022/02/15 05:03:55;;;;;;;;;;;8.40;99.90;;;6.59;100.00;99858.00;5073116;28;19977;-88
2022/02/15 05:06:23;;;;;;;;;;;8.40;99.90;;;6.50;100.00;99859.03;5074175;28;20358;-88
2022/02/15 05:08:50;;;;;;;;;;;8.40;99.90;;;6.48;100.00;99860.25;5070649;28;20014;-85
2022/02/15 05:11:18;;;;;;;;;;;8.40;99.90;;;6.39;100.00;99864.81;5074960;28;19974;-87
2022/02/15 05:13:52;;;;;;;;;;;8.40;99.90;;;6.40;100.00;99858.41;5072871;28;19932;-89
2022/02/15 05:16:30;;;;;;;;;;;8.40;99.90;;;6.42;100.00;99861.78;5071172;28;19928;-91
2022/02/15 05:19:34;;;;;;;;;;;8.40;99.90;;;6.42;100.00;99859.06;5073687;28;19932;-91
2022/02/15 05:22:05;;;;;;;;;;;8.40;99.90;;;6.48;100.00;99866.47;5056132;28;19924;-91
2022/02/15 05:24:47;;;;;;;;;;;8.40;99.90;;;6.48;100.00;99871.88;5073778;28;20138;-92
2022/02/15 05:27:17;;;;;;;;;;;8.40;99.90;;;6.52;100.00;99870.53;5073801;28;19928;-91
2022/02/15 05:29:49;;;;;;;;;;;8.40;99.90;;;6.50;100.00;99879.81;5072955;28;19985;-91
2022/02/15 05:32:22;;;;;;;;;;;8.40;99.90;;;6.52;100.00;99878.63;5090125;28;19982;-89
2022/02/15 05:34:51;;;;;;;;;;;8.40;99.90;;;6.50;100.00;99874.41;5077983;28;19928;-91
2022/02/15 05:37:21;;;;;;;;;;;8.30;99.90;;;6.47;100.00;99875.59;5074014;28;19962;-88
2022/02/15 05:39:51;;;;;;;;;;;8.30;99.90;;;6.48;100.00;99874.59;5070495;28;19954;-90
2022/02/15 05:42:42;;;;;;;;;;;8.30;99.90;;;6.52;100.00;99886.75;5072947;28;20025;-91
2022/02/15 05:45:11;;;;;;;;;;;8.30;99.90;;;6.56;100.00;99879.97;5073706;28;19928;-90
2022/02/15 05:47:49;;;;;;;;;;;8.30;99.90;;;6.57;100.00;99884.38;5073414;28;19928;-92
2022/02/15 05:53:14;;;;;;;;;;;8.30;99.90;;;6.53;100.00;99874.91;5020108;28;20399;-91
2022/02/15 05:55:41;;;;;;;;;;;8.30;99.90;;;6.56;100.00;99874.56;5092400;22;20343;-84
2022/02/15 05:58:12;;;;;;;;;;;8.30;99.90;;;6.54;100.00;99876.59;5084484;28;19935;-85
2022/02/15 06:00:42;;;;;;;;;;;8.30;99.90;;;6.38;100.00;99884.78;5095213;28;19931;-84
2022/02/15 06:05:54;;;;;;;;;;;8.30;99.90;;;6.25;100.00;99898.81;5108407;28;19931;-85
2022/02/15 06:08:26;;;;;;;;;;;8.20;99.90;;;6.09;100.00;99891.56;5116679;27;20338;-85
2022/02/15 06:10:56;;;;;;;;;;;8.20;99.90;;;6.23;100.00;99904.38;5116508;27;19934;-87
2022/02/15 06:13:40;;;;;;;;;;;8.20;99.90;;;6.30;100.00;99900.97;5139541;27;19927;-86
2022/02/15 06:16:12;;;;;;;;;;;8.20;99.90;;;6.32;100.00;99893.53;5099081;27;19942;-83
2022/02/15 06:18:59;;;;;;;;;;;8.20;99.90;;;6.34;100.00;99894.22;5099102;27;21266;-85
2022/02/15 06:21:33;;;;;;;;;;;8.20;99.90;;;6.27;100.00;99899.47;5103540;27;20054;-85
2022/02/15 06:24:03;;;;;;;;;;;8.20;99.90;;;6.18;100.00;99909.44;5111622;27;19935;-87
2022/02/15 06:26:33;;;;;;;;;;;8.20;99.90;;;6.21;100.00;99914.50;5109590;27;19927;-87
2022/02/15 06:29:28;;;;;;;;;;;8.10;99.90;;;6.23;100.00;99911.66;5096029;27;20022;-87
2022/02/15 06:32:01;;;;;;;;;;;8.10;99.90;;;6.18;100.00;99920.25;5112072;27;19932;-88
2022/02/15 06:34:29;;;;;;;;;;;8.10;99.90;;;6.12;100.00;99926.34;5111282;27;19959;-86
2022/02/15 06:37:04;;;;;;;;;;;8.10;99.90;;;6.18;100.00;99909.44;5096067;28;19924;-86
2022/02/15 06:39:38;;;;;;;;;;;8.10;99.90;;;6.31;100.00;99919.72;5111502;27;19927;-85
2022/02/15 06:42:12;;;;;;;;;;;8.10;99.90;;;6.31;100.00;99935.09;5111109;27;20436;-85
2022/02/15 06:44:39;;;;;;;;;;;8.10;99.90;;;6.31;100.00;99938.66;5094635;27;19923;-85
2022/02/15 06:47:06;;;;;;;;;;;8.00;99.90;;;6.27;100.00;99937.31;5113594;27;19927;-86
2022/02/15 06:49:33;;;;;;;;;;;8.00;99.90;;;6.20;100.00;99947.94;5106537;27;19927;-85
2022/02/15 06:52:28;;;;;;;;;;;8.10;99.90;;;6.24;100.00;99952.00;5085223;27;20417;-86
2022/02/15 06:55:09;;;;;;;;;;;8.10;99.90;;;6.17;100.00;99948.28;5094750;28;19934;-86
2022/02/15 06:57:44;;;;;;;;;;;8.10;99.90;;;6.23;100.00;99949.47;5098837;27;19927;-85
2022/02/15 07:00:15;;;;;;;;;;;8.10;99.90;;;6.24;100.00;99952.00;5103828;27;19934;-86
2022/02/15 07:02:43;;;;;;;;;;;8.10;99.90;;;6.31;100.00;99956.72;5104030;27;19938;-85
2022/02/15 07:05:15;;;;;;;;;;;8.10;99.90;;;6.25;100.00;99961.78;5102232;27;20395;-86
2022/02/15 07:07:49;;;;;;;;;;;8.10;99.90;;;6.24;100.00;99952.00;5100049;27;19924;-85
2022/02/15 07:10:21;;;;;;;;;;;8.10;99.90;;;6.22;100.00;99962.13;5118662;27;19976;-86
2022/02/15 07:12:54;;;;;;;;;;;8.20;99.90;;;6.30;100.00;99955.03;5096606;27;20633;-86
2022/02/15 07:15:31;;;;;;;;;;;8.10;99.90;;;6.32;100.00;99974.63;5104414;27;20386;-86
2022/02/15 07:18:05;;;;;;;;;;;8.10;99.90;;;6.26;100.00;99971.59;5092754;27;19927;-86
2022/02/15 07:20:45;;;;;;;;;;;8.20;99.90;;;6.31;100.00;99983.75;5096347;28;20715;-92
2022/02/15 07:23:32;;;;;;;;;;;8.20;99.90;;;6.36;100.00;99982.22;5123547;27;19927;-92
2022/02/15 07:26:18;;;;;;;;;;;8.10;99.90;;;6.45;100.00;99991.16;5119810;27;19994;-84
2022/02/15 07:29:03;;;;;;;;;;;8.10;99.90;;;6.52;100.00;99992.16;5107686;27;19928;-84
2022/02/15 07:31:36;;;;;;;;;;;8.10;99.90;;;6.43;100.00;99982.38;5106458;27;19931;-84
2022/02/15 07:34:04;;;;;;;;;;;8.20;99.90;;;6.42;100.00;99991.50;5103879;27;19932;-84
2022/02/15 07:36:37;;;;;;;;;;;8.20;99.90;;;6.38;100.00;99993.72;5103438;28;20015;-84
2022/02/15 07:39:07;;;;;;;;;;;8.20;99.90;;;6.33;100.00;99995.22;5119589;27;20018;-84
2022/02/15 07:41:34;;;;;;;;;;;8.20;99.90;;;6.34;100.00;100005.00;5128057;27;19938;-84
2022/02/15 07:44:01;;;;;;;;;;;8.40;99.90;;;6.46;100.00;100004.50;5130645;27;20351;-84
2022/02/15 07:46:33;;;;;;;;;;;8.30;99.90;;;6.51;100.00;100008.56;5097108;28;20022;-84
2022/02/15 07:49:00;;;;;;;;;;;8.20;99.90;;;6.49;100.00;100008.72;5127446;27;20016;-84
2022/02/15 07:51:27;;;;;;;;;;;8.30;99.90;;;6.47;100.00;100016.16;5128345;27;20497;-84
2022/02/15 07:53:54;;;;;;;;;;;8.30;99.90;;;6.44;100.00;100016.50;5108616;27;19931;-84
2022/02/15 07:56:22;;;;;;;;;;;8.30;99.90;;;6.43;100.00;100020.22;5098699;28;21189;-84
2022/02/15 07:58:49;;;;;;;;;;;8.30;99.90;;;6.48;100.00;100015.16;5110762;27;19923;-84
2022/02/15 08:01:17;;;;;;;;;;;8.30;99.90;;;6.53;100.00;100026.31;5128362;27;19927;-85
2022/02/15 08:03:44;;;;;;;;;;;8.40;99.90;;;6.54;100.00;100019.88;5127894;28;19980;-84
2022/02/15 08:06:11;;;;;;;;;;;8.40;99.90;;;6.53;100.00;100025.44;5102874;28;19935;-84
2022/02/15 08:08:38;;;;;;;;;;;8.40;99.90;;;6.53;100.00;100028.16;5100411;28;19933;-85
2022/02/15 08:11:06;;;;;;;;;;;8.40;99.90;;;6.56;100.00;100036.75;5118577;28;19928;-85
2022/02/15 08:13:35;;;;;;;;;;;8.40;99.90;;;6.63;100.00;100035.06;5125490;28;19979;-85
2022/02/15 08:16:02;;;;;;;;;;;8.40;99.90;;;6.64;100.00;100034.06;5124170;28;19970;-84
2022/02/15 08:18:29;;;;;;;;;;;8.60;99.90;;;6.63;100.00;100034.22;5126681;28;19927;-85
2022/02/15 08:20:56;;;;;;;;;;;8.40;99.90;;;6.59;100.00;100041.84;5111387;28;19935;-84
2022/02/15 08:23:24;;;;;;;;;;;8.50;99.90;;;6.62;100.00;100044.19;5129996;28;19989;-84
2022/02/15 08:25:52;;;;;;;;;;;8.50;99.90;;;6.70;100.00;100054.19;5122639;28;20410;-84
2022/02/15 08:28:21;;;;;;;;;;;8.50;99.90;;;6.74;100.00;100038.44;5124476;28;19927;-84
2022/02/15 08:30:50;;;;;;;;;;;8.50;99.90;;;6.77;100.00;100052.44;5129003;28;19927;-84
2022/02/15 08:33:19;;;;;;;;;;;8.50;99.90;;;6.78;100.00;100058.72;5111510;28;20370;-84
2022/02/15 08:35:46;;;;;;;;;;;8.50;99.90;;;6.81;100.00;100061.06;5106332;28;20000;-84
2022/02/15 08:38:13;;;;;;;;;;;8.50;99.90;;;6.83;100.00;100054.50;5123892;28;20394;-84
2022/02/15 08:40:42;;;;;;;;;;;8.60;99.90;;;6.83;100.00;100050.91;5125889;28;20018;-84
2022/02/15 08:43:10;;;;;;;;;;;8.60;99.90;;;6.90;100.00;100054.63;5110805;28;20386;-84
2022/02/15 08:45:37;;;;;;;;;;;8.60;99.90;;;6.94;100.00;100071.38;5126887;28;19927;-84
2022/02/15 08:48:08;;;;;;;;;;;8.60;99.90;;;6.98;100.00;100070.00;5125062;28;19946;-84
2022/02/15 08:50:36;;;;;;;;;;;8.70;99.90;;;6.94;100.00;100061.38;5127370;27;20388;-83
2022/02/15 08:53:03;;;;;;;;;;;8.70;99.90;;;7.04;100.00;100059.34;5131471;27;20401;-84
2022/02/15 08:55:31;;;;;;;;;;;8.70;99.90;;;7.13;100.00;100053.91;5112629;27;19927;-84
2022/02/15 08:58:02;;;;;;;;;;;8.80;99.90;;;7.16;100.00;100057.13;5128183;27;20447;-84
2022/02/15 09:00:29;;;;;;;;;;;8.80;99.90;;;7.15;100.00;100068.09;5130638;27;19923;-84
2022/02/15 09:02:57;;;;;;;;;;;8.80;99.90;;;7.24;100.00;100064.34;5095478;27;19928;-84
2022/02/15 09:05:27;;;;;;;;;;;8.90;99.90;;;7.25;100.00;100063.31;5118505;27;19938;-84
2022/02/15 09:07:54;;;;;;;;;;;8.90;99.90;;;7.30;100.00;100060.13;5125589;27;19963;-83
2022/02/15 09:10:24;;;;;;;;;;;8.90;99.90;;;7.36;100.00;100057.53;5132595;27;20677;-84
2022/02/15 09:12:51;;;;;;;;;;;8.90;99.90;;;7.33;100.00;100066.03;5130088;27;19932;-84
2022/02/15 09:15:18;;;;;;;;;;;9.00;99.90;;;7.33;100.00;100070.56;5126840;27;19957;-84
2022/02/15 09:17:45;;;;;;;;;;;9.00;99.90;;;7.33;100.00;100066.03;5129572;27;20482;-84
2022/02/15 09:20:13;;;;;;;;;;;9.00;99.90;;;7.36;100.00;100071.06;5113554;27;19934;-84
2022/02/15 09:22:42;;;;;;;;;;;9.00;99.90;;;7.41;100.00;100079.53;5132561;27;20009;-85
2022/02/15 09:25:10;;;;;;;;;;;9.10;99.90;;;7.43;100.00;100076.66;5128158;27;19985;-84
2022/02/15 09:27:37;;;;;;;;;;;9.10;99.90;;;7.39;100.00;100076.16;5116435;27;19927;-83
2022/02/15 09:30:05;;;;;;;;;;;9.10;99.90;;;7.38;100.00;100096.09;5122016;27;19923;-83
2022/02/15 09:32:33;;;;;;;;;;;9.10;99.90;;;7.35;100.00;100087.47;5132726;27;19962;-84
2022/02/15 09:35:00;;;;;;;;;;;9.10;99.90;;;7.33;100.00;100098.50;5128068;27;19923;-84
2022/02/15 09:37:27;;;;;;;;;;;9.10;99.90;;;7.29;100.00;100094.47;5126864;27;20353;-84
2022/02/15 09:39:56;;;;;;;;;;;9.00;99.90;;;7.19;100.00;100104.63;5121520;27;19923;-84
2022/02/15 09:42:24;;;;;;;;;;;9.00;99.90;;;7.11;100.00;100104.66;5130150;27;19927;-85
2022/02/15 09:44:51;;;;;;;;;;;9.00;99.90;;;7.11;100.00;100110.91;5110311;27;20356;-85
2022/02/15 09:47:23;;;;;;;;;;;9.00;99.90;;;7.07;100.00;100103.31;5108275;27;20037;-85
2022/02/15 09:49:51;;;;;;;;;;;9.00;99.90;;;7.07;100.00;100106.00;5110787;27;20014;-85
2022/02/15 09:52:19;;;;;;;;;;;9.00;99.90;;;7.09;100.00;100112.09;5129501;27;19927;-84
2022/02/15 09:54:46;;;;;;;;;;;8.90;99.90;;;7.20;100.00;100111.75;5110219;27;20055;-85
2022/02/15 09:57:15;;;;;;;;;;;8.90;99.90;;;7.20;100.00;100109.88;5127465;27;19934;-84
2022/02/15 09:59:42;;;;;;;;;;;8.90;99.90;;;7.20;100.00;100103.63;5110969;27;19933;-84
2022/02/15 10:02:13;;;;;;;;;;;8.90;99.90;;;7.14;100.00;100109.69;5128228;27;20015;-84
2022/02/15 10:04:41;;;;;;;;;;;8.90;99.90;;;7.04;100.00;100110.75;5126111;27;19928;-84
2022/02/15 10:07:11;;;;;;;;;;;8.90;99.90;;;7.03;100.00;100109.06;5128771;27;19931;-84
2022/02/15 10:09:41;;;;;;;;;;;8.90;99.90;;;7.11;100.00;100110.06;5130638;27;19932;-84
2022/02/15 10:12:10;;;;;;;;;;;8.90;99.90;;;7.23;100.00;100114.94;5129686;27;19931;-84
2022/02/15 10:14:39;;;;;;;;;;;8.90;99.90;;;7.25;100.00;100122.88;5127531;27;20874;-84
2022/02/15 10:17:08;;;;;;;;;;;9.00;99.90;;;7.29;100.00;100126.94;5128061;27;19972;-84
2022/02/15 10:19:35;;;;;;;;;;;9.20;99.90;;;7.29;100.00;100121.53;5131022;27;19923;-84
2022/02/15 10:22:04;;;;;;;;;;;9.10;99.90;;;7.33;100.00;100120.16;5131424;27;19953;-83
2022/02/15 10:24:33;;;;;;;;;;;9.00;99.90;;;7.38;100.00;100125.03;5107445;27;20375;-83
2022/02/15 10:27:01;;;;;;;;;;;9.10;99.90;;;7.33;100.00;100128.28;5125089;27;19923;-83
2022/02/15 10:29:30;;;;;;;;;;;9.10;99.90;;;7.36;100.00;100137.91;5128518;27;19923;-83
2022/02/15 10:32:00;;;;;;;;;;;9.10;99.90;;;7.36;100.00;100138.75;5116394;27;20403;-83
2022/02/15 10:34:28;;;;;;;;;;;9.00;99.90;;;7.29;100.00;100132.34;5124259;27;19970;-83
2022/02/15 10:36:59;;;;;;;;;;;9.00;99.90;;;7.27;100.00;100138.94;5120772;27;20019;-83
2022/02/15 10:39:35;;;;;;;;;;;9.00;99.90;;;7.24;100.00;100138.28;5117590;27;19935;-83
2022/02/15 10:42:08;;;;;;;;;;;9.00;99.90;;;7.27;100.00;100153.31;5121444;27;19934;-83
2022/02/15 10:44:52;;;;;;;;;;;9.00;99.90;;;7.34;100.00;100153.47;5127009;27;19938;-83
2022/02/15 10:47:21;;;;;;;;;;;8.90;99.90;;;7.32;100.00;100150.09;5120057;27;20010;-83
2022/02/15 10:49:48;;;;;;;;;;;8.90;99.90;;;7.30;100.00;100146.72;5114513;27;19927;-83
2022/02/15 10:52:15;;;;;;;;;;;8.90;99.90;;;7.23;100.00;100151.97;5127807;27;19966;-83
2022/02/15 10:54:43;;;;;;;;;;;8.90;99.90;;;7.25;100.00;100149.94;5127048;27;20018;-84
2022/02/15 10:57:12;;;;;;;;;;;8.90;99.90;;;7.23;100.00;100147.44;5119355;27;19924;-83
2022/02/15 10:59:40;;;;;;;;;;;9.00;99.90;;;7.32;100.00;100145.53;5127067;27;19935;-83
2022/02/15 11:02:07;;;;;;;;;;;9.00;99.90;;;7.45;100.00;100150.41;5119960;27;19934;-83
2022/02/15 11:04:35;;;;;;;;;;;9.10;99.90;;;7.53;100.00;100149.53;5121484;27;19927;-87
2022/02/15 11:07:25;;;;;;;;;;;9.10;99.90;;;7.66;100.00;100152.53;5125254;27;19928;-95
2022/02/15 11:10:12;;;;;;;;;;;9.20;99.90;;;7.85;100.00;100153.16;5123807;27;19975;-86
2022/02/15 11:12:44;;;;;;;;;;;9.30;99.90;;;7.91;100.00;100157.88;5126971;27;19952;-85
2022/02/15 11:15:12;;;;;;;;;;;9.40;99.90;;;8.01;100.00;100151.22;5120600;27;19927;-84
2022/02/15 11:17:46;;;;;;;;;;;9.50;99.90;;;8.17;100.00;100144.88;5126791;27;19927;-85
2022/02/15 11:20:17;;;;;;;;;;;9.50;99.90;;;8.23;99.92;100144.16;5129310;27;19927;-85
2022/02/15 11:22:47;;;;;;;;;;;9.70;99.90;;;8.25;99.04;100138.53;5128916;27;19927;-85
2022/02/15 11:25:14;;;;;;;;;;;9.70;99.90;;;8.31;99.02;100142.41;5120265;27;19934;-85
2022/02/15 11:27:50;;;;;;;;;;;9.80;99.90;;;8.35;96.51;100130.19;5122128;27;19935;-85
2022/02/15 11:30:18;;;;;;;;;;;9.80;99.90;;;8.31;96.49;100137.00;5124350;27;20387;-85
2022/02/15 11:32:47;;;;;;;;;;;9.70;99.90;;;8.32;95.47;100130.53;5116483;27;19931;-85
2022/02/15 11:35:18;;;;;;;;;;;9.80;99.90;;;8.30;94.25;100124.44;5117964;27;19951;-85
2022/02/15 11:37:45;;;;;;;;;;;9.80;99.90;;;8.22;92.96;100128.91;5116910;27;19971;-85
2022/02/15 11:40:14;;;;;;;;;;;9.80;98.20;;;8.08;91.08;100129.66;5128706;27;19966;-85
2022/02/15 11:42:47;;;;;;;;;;;9.70;96.40;;;8.02;90.47;100131.22;5128138;27;19927;-85
2022/02/15 11:45:24;;;;;;;;;;;9.70;97.20;;;7.98;91.95;100138.03;5110921;27;19927;-85
2022/02/15 11:47:51;;;;;;;;;;;9.60;97.70;;;7.95;89.98;100130.22;5122803;27;19935;-85
2022/02/15 11:50:20;;;;;;;;;;;9.60;97.30;;;7.90;90.34;100115.53;5123018;27;19927;-85